createdAt,value
2018-01-11T00:01:11.408Z,4.50
2018-01-11T00:03:50.256Z,4.50
2018-01-11T00:06:18.694Z,4.40
2018-01-11T00:08:46.238Z,4.40
2018-01-11T00:11:13.753Z,4.30
2018-01-11T00:13:41.278Z,4.20
2018-01-11T00:16:08.788Z,4.20
2018-01-11T00:18:36.319Z,4.20
2018-01-11T00:21:04.587Z,4.10
2018-01-11T00:23:32.118Z,4.10
2018-01-11T00:25:59.630Z,4.10
2018-01-11T00:28:27.174Z,4.10
2018-01-11T00:30:54.684Z,4.10
2018-01-11T00:33:22.250Z,4.00
2018-01-11T00:35:50.560Z,4.00
2018-01-11T00:38:19.786Z,3.90
2018-01-11T00:40:48.253Z,3.90
2018-01-11T00:43:15.815Z,3.90
2018-01-11T00:45:43.367Z,3.90
2018-01-11T00:48:10.907Z,3.90
2018-01-11T00:50:38.434Z,4.00
2018-01-11T00:53:05.987Z,4.00
2018-01-11T00:55:34.289Z,4.00
2018-01-11T00:58:01.835Z,4.00
2018-01-11T01:00:29.384Z,4.00
2018-01-11T01:02:57.705Z,4.00
2018-01-11T01:05:25.247Z,4.10
2018-01-11T01:07:52.782Z,4.10
2018-01-11T01:10:20.356Z,4.20
2018-01-11T01:12:47.887Z,4.20
2018-01-11T01:15:15.430Z,4.20
2018-01-11T01:17:43.736Z,4.30
2018-01-11T01:20:11.270Z,4.30
2018-01-11T01:22:38.806Z,4.40
2018-01-11T01:25:06.367Z,4.50
2018-01-11T01:27:34.656Z,4.60
2018-01-11T01:30:02.196Z,4.60
2018-01-11T01:32:29.720Z,4.60
2018-01-11T01:34:57.274Z,4.60
2018-01-11T01:37:24.798Z,4.50
2018-01-11T01:39:52.349Z,4.40
2018-01-11T01:42:19.875Z,4.30
2018-01-11T01:44:48.186Z,4.20
2018-01-11T01:47:16.501Z,4.10
2018-01-11T01:49:44.052Z,4.10
2018-01-11T01:52:11.593Z,4.20
2018-01-11T01:54:39.155Z,4.10
2018-01-11T01:57:06.735Z,4.10
2018-01-11T01:59:35.054Z,4.00
2018-01-11T02:02:02.579Z,4.00
2018-01-11T02:04:30.576Z,3.90
2018-01-11T02:06:58.110Z,3.90
2018-01-11T02:09:26.394Z,4.00
2018-01-11T02:11:54.703Z,4.00
2018-01-11T02:14:22.996Z,3.90
2018-01-11T02:16:50.595Z,3.90
2018-01-11T02:19:18.882Z,4.00
2018-01-11T02:21:47.199Z,3.90
2018-01-11T02:24:15.489Z,3.80
2018-01-11T02:26:43.799Z,3.70
2018-01-11T02:29:12.087Z,3.60
2018-01-11T02:31:39.652Z,3.60
2018-01-11T02:34:07.200Z,3.60
2018-01-11T02:36:35.219Z,3.50
2018-01-11T02:39:02.743Z,3.50
2018-01-11T02:41:31.069Z,3.30
2018-01-11T02:43:58.595Z,3.30
2018-01-11T02:46:26.136Z,3.30
2018-01-11T02:48:53.654Z,3.10
2018-01-11T02:51:21.213Z,3.10
2018-01-11T02:53:48.742Z,3.00
2018-01-11T02:56:16.286Z,3.10
2018-01-11T02:58:43.818Z,3.00
2018-01-11T03:01:11.374Z,3.00
2018-01-11T03:03:38.920Z,2.90
2018-01-11T03:06:06.462Z,2.90
2018-01-11T03:08:34.002Z,2.90
2018-01-11T03:11:01.550Z,2.80
2018-01-11T03:13:29.071Z,2.80
2018-01-11T03:15:56.611Z,2.70
2018-01-11T03:18:24.126Z,2.70
2018-01-11T03:20:51.660Z,2.60
2018-01-11T03:23:19.207Z,2.60
2018-01-11T03:25:46.741Z,2.50
2018-01-11T03:28:14.288Z,2.50
2018-01-11T03:30:41.806Z,2.40
2018-01-11T03:33:09.365Z,2.40
2018-01-11T03:35:36.909Z,2.50
2018-01-11T03:38:05.218Z,2.50
2018-01-11T03:40:32.743Z,2.50
2018-01-11T03:43:00.306Z,2.50
2018-01-11T03:45:27.830Z,2.50
2018-01-11T03:47:55.384Z,2.50
2018-01-11T03:50:22.916Z,2.50
2018-01-11T03:52:50.462Z,2.60
2018-01-11T03:55:18.003Z,2.70
2018-01-11T03:57:46.326Z,2.60
2018-01-11T04:00:13.846Z,2.60
2018-01-11T04:02:42.158Z,2.40
2018-01-11T04:05:09.675Z,2.40
2018-01-11T04:07:38.002Z,2.30
2018-01-11T04:10:05.527Z,2.30
2018-01-11T04:12:33.070Z,2.30
2018-01-11T04:15:00.595Z,2.30
2018-01-11T04:17:28.135Z,2.40
2018-01-11T04:19:55.671Z,2.40
2018-01-11T04:22:23.220Z,2.50
2018-01-11T04:24:50.769Z,2.50
2018-01-11T04:27:19.084Z,2.60
2018-01-11T04:29:46.624Z,2.60
2018-01-11T04:32:14.173Z,2.50
2018-01-11T04:34:41.722Z,2.50
2018-01-11T04:37:09.257Z,2.50
2018-01-11T04:39:36.802Z,2.50
2018-01-11T04:42:05.087Z,2.50
2018-01-11T04:44:32.629Z,2.50
2018-01-11T04:47:00.155Z,2.40
2018-01-11T04:49:27.699Z,2.40
2018-01-11T04:51:55.225Z,2.30
2018-01-11T04:54:22.774Z,2.30
2018-01-11T04:56:50.299Z,2.40
2018-01-11T04:59:17.839Z,2.40
2018-01-11T05:01:45.362Z,2.30
2018-01-11T05:04:12.906Z,2.30
2018-01-11T05:06:40.426Z,2.30
2018-01-11T05:09:07.967Z,2.30
2018-01-11T05:11:35.488Z,2.30
2018-01-11T05:14:03.034Z,2.20
2018-01-11T05:16:30.554Z,2.20
2018-01-11T05:18:58.099Z,2.20
2018-01-11T05:21:25.619Z,2.20
2018-01-11T05:23:53.159Z,2.30
2018-01-11T05:26:20.696Z,2.30
2018-01-11T05:28:48.239Z,2.30
2018-01-11T05:31:15.758Z,2.30
2018-01-11T05:33:43.300Z,2.30
2018-01-11T05:36:10.818Z,2.20
2018-01-11T05:38:38.367Z,2.20
2018-01-11T05:41:05.919Z,2.20
2018-01-11T05:43:33.464Z,2.20
2018-01-11T05:46:01.005Z,2.20
2018-01-11T05:48:28.574Z,2.30
2018-01-11T05:50:56.861Z,2.20
2018-01-11T05:53:24.389Z,2.20
2018-01-11T05:55:51.945Z,2.20
2018-01-11T05:58:20.236Z,2.20
2018-01-11T06:00:47.797Z,2.20
2018-01-11T06:03:15.323Z,2.30
2018-01-11T06:05:43.645Z,2.40
2018-01-11T06:08:11.178Z,2.40
2018-01-11T06:10:38.729Z,2.40
2018-01-11T06:13:06.253Z,2.40
2018-01-11T06:15:33.794Z,2.40
2018-01-11T06:18:01.318Z,2.40
2018-01-11T06:20:28.855Z,2.40
2018-01-11T06:22:56.370Z,2.40
2018-01-11T06:25:23.926Z,2.40
2018-01-11T06:27:51.451Z,2.40
2018-01-11T06:30:18.995Z,2.40
2018-01-11T06:32:46.533Z,2.50
2018-01-11T06:35:14.850Z,2.50
2018-01-11T06:37:43.193Z,2.60
2018-01-11T06:40:11.564Z,2.60
2018-01-11T06:42:39.869Z,2.60
2018-01-11T06:45:08.228Z,2.60
2018-01-11T06:47:35.751Z,2.60
2018-01-11T06:50:04.068Z,2.80
2018-01-11T06:52:31.586Z,2.80
2018-01-11T06:54:59.143Z,2.90
2018-01-11T06:57:26.662Z,3.00
2018-01-11T06:59:54.208Z,3.00
2018-01-11T07:02:21.775Z,3.10
2018-01-11T07:04:50.085Z,3.30
2018-01-11T07:07:17.612Z,3.30
2018-01-11T07:09:45.167Z,3.20
2018-01-11T07:12:12.687Z,3.30
2018-01-11T07:14:40.246Z,3.20
2018-01-11T07:17:07.800Z,3.10
2018-01-11T07:19:36.077Z,3.10
2018-01-11T07:22:03.619Z,3.10
2018-01-11T07:24:31.138Z,3.20
2018-01-11T07:26:58.678Z,3.20
2018-01-11T07:29:26.215Z,3.20
2018-01-11T07:31:53.763Z,3.20
2018-01-11T07:34:21.295Z,3.20
2018-01-11T07:36:49.598Z,3.30
2018-01-11T07:39:17.884Z,3.20
2018-01-11T07:41:45.441Z,3.20
2018-01-11T07:44:12.978Z,3.20
2018-01-11T07:46:41.675Z,3.20
2018-01-11T07:49:09.997Z,3.10
2018-01-11T07:51:37.543Z,3.10
2018-01-11T07:54:05.065Z,3.00
2018-01-11T07:56:33.386Z,2.90
2018-01-11T07:59:00.937Z,2.90
2018-01-11T08:01:29.250Z,3.00
2018-01-11T08:03:57.579Z,3.00
2018-01-11T08:06:25.148Z,3.00
2018-01-11T08:08:53.535Z,3.00
2018-01-11T08:11:21.847Z,3.00
2018-01-11T08:13:50.135Z,3.00
2018-01-11T08:16:17.674Z,3.00
2018-01-11T08:18:45.218Z,2.90
2018-01-11T08:21:13.530Z,2.90
2018-01-11T08:23:41.083Z,2.90
2018-01-11T08:26:08.611Z,2.70
2018-01-11T08:28:36.178Z,2.70
2018-01-11T08:31:03.719Z,2.60
2018-01-11T08:33:31.291Z,2.60
2018-01-11T08:35:58.837Z,2.60
2018-01-11T08:38:26.382Z,2.60
2018-01-11T08:40:53.924Z,2.70
2018-01-11T08:43:21.464Z,2.70
2018-01-11T08:45:49.751Z,2.90
2018-01-11T08:48:17.302Z,2.90
2018-01-11T08:50:44.827Z,3.00
2018-01-11T08:53:13.154Z,3.10
2018-01-11T08:55:41.443Z,3.40
2018-01-11T08:58:09.749Z,3.50
2018-01-11T09:00:38.052Z,3.70
2018-01-11T09:03:06.429Z,3.80
2018-01-11T09:05:33.927Z,3.80
2018-01-11T09:08:01.494Z,4.00
2018-01-11T09:10:29.024Z,4.10
2018-01-11T09:12:57.347Z,4.40
2018-01-11T09:15:24.889Z,4.40
2018-01-11T09:17:53.136Z,4.50
2018-01-11T09:20:20.662Z,4.70
2018-01-11T09:22:48.214Z,4.80
2018-01-11T09:25:15.753Z,5.00
2018-01-11T09:27:43.349Z,5.10
2018-01-11T09:30:10.943Z,5.20
2018-01-11T09:32:39.285Z,5.40
2018-01-11T09:35:06.813Z,5.40
2018-01-11T09:37:34.391Z,5.50
2018-01-11T09:40:01.921Z,5.60
2018-01-11T09:42:30.222Z,5.80
2018-01-11T09:44:58.889Z,6.00
2018-01-11T09:47:26.429Z,5.90
2018-01-11T09:49:54.944Z,6.20
2018-01-11T09:52:22.468Z,6.20
2018-01-11T09:54:50.037Z,6.20
2018-01-11T09:57:17.587Z,6.20
2018-01-11T09:59:45.136Z,6.30
2018-01-11T10:02:12.759Z,6.30
2018-01-11T10:04:41.327Z,6.20
2018-01-11T10:07:09.619Z,6.10
2018-01-11T10:09:37.179Z,6.10
2018-01-11T10:12:04.707Z,6.00
2018-01-11T10:14:41.073Z,5.80
2018-01-11T10:17:09.368Z,5.50
2018-01-11T10:19:39.549Z,5.50
2018-01-11T10:22:07.096Z,5.50
2018-01-11T10:27:26.572Z,5.60
2018-01-11T10:30:02.193Z,5.60
2018-01-11T10:35:20.275Z,5.60
2018-01-11T10:37:47.789Z,5.70
2018-01-11T10:40:15.318Z,5.80
2018-01-11T10:42:42.825Z,5.90
2018-01-11T10:45:11.124Z,6.00
2018-01-11T10:47:39.401Z,5.90
2018-01-11T10:50:06.932Z,5.90
2018-01-11T10:52:34.451Z,6.00
2018-01-11T10:55:01.983Z,6.00
2018-01-11T10:57:30.252Z,6.20
2018-01-11T10:59:57.776Z,6.20
2018-01-11T11:02:31.732Z,6.40
2018-01-11T11:04:59.265Z,6.30
2018-01-11T11:07:26.772Z,6.70
2018-01-11T11:09:55.068Z,6.70
2018-01-11T11:12:22.574Z,6.70
2018-01-11T11:14:50.106Z,6.70
2018-01-11T11:17:17.852Z,6.70
2018-01-11T11:19:45.379Z,6.80
2018-01-11T11:22:12.885Z,6.80
2018-01-11T11:24:40.417Z,6.90
2018-01-11T11:27:07.925Z,6.80
2018-01-11T11:29:35.458Z,6.80
2018-01-11T11:32:03.737Z,6.90
2018-01-11T11:34:31.255Z,6.90
2018-01-11T11:37:00.538Z,7.00
2018-01-11T11:39:28.044Z,7.00
2018-01-11T11:41:55.572Z,7.10
2018-01-11T11:44:23.080Z,7.10
2018-01-11T11:46:50.608Z,7.10
2018-01-11T11:49:18.212Z,7.20
2018-01-11T11:51:46.510Z,7.30
2018-01-11T11:54:14.785Z,7.30
2018-01-11T11:56:42.303Z,7.30
2018-01-11T11:59:09.817Z,7.30
2018-01-11T12:01:38.191Z,7.30
2018-01-11T12:04:06.463Z,7.40
2018-01-11T12:06:33.997Z,7.40
2018-01-11T12:09:01.508Z,7.40
2018-01-11T12:11:29.032Z,7.50
2018-01-11T12:13:57.300Z,7.60
2018-01-11T12:16:24.828Z,7.60
2018-01-11T12:18:53.100Z,7.70
2018-01-11T12:21:20.624Z,7.70
2018-01-11T12:23:48.144Z,7.60
2018-01-11T12:26:15.678Z,7.70
2018-01-11T12:28:43.947Z,7.60
2018-01-11T12:31:11.476Z,7.50
2018-01-11T12:33:39.752Z,7.60
2018-01-11T12:36:07.292Z,7.60
2018-01-11T12:38:34.796Z,7.60
2018-01-11T12:41:02.325Z,7.60
2018-01-11T12:43:30.594Z,7.70
2018-01-11T12:45:58.100Z,7.70
2018-01-11T12:48:25.629Z,7.70
2018-01-11T12:50:53.136Z,7.80
2018-01-11T12:53:20.679Z,7.80
2018-01-11T12:55:48.218Z,7.80
2018-01-11T12:58:15.748Z,7.90
2018-01-11T13:00:44.019Z,8.00
2018-01-11T13:03:11.548Z,8.00
2018-01-11T13:05:39.816Z,8.10
2018-01-11T13:08:07.541Z,8.10
2018-01-11T13:10:35.811Z,8.30
2018-01-11T13:13:03.331Z,8.20
2018-01-11T13:15:30.835Z,8.20
2018-01-11T13:17:58.370Z,8.10
2018-01-11T13:20:25.957Z,8.20
2018-01-11T13:22:53.479Z,8.20
2018-01-11T13:25:20.992Z,8.20
2018-01-11T13:27:48.527Z,8.20
2018-01-11T13:30:16.826Z,8.20
2018-01-11T13:32:45.155Z,8.20
2018-01-11T13:35:12.652Z,8.10
2018-01-11T13:37:40.178Z,8.20
2018-01-11T13:40:07.690Z,8.20
2018-01-11T13:42:35.979Z,8.30
2018-01-11T13:45:04.258Z,8.30
2018-01-11T13:47:32.225Z,8.30
2018-01-11T13:49:59.733Z,8.40
2018-01-11T13:52:27.255Z,8.40
2018-01-11T13:54:55.549Z,8.50
2018-01-11T13:57:23.096Z,8.50
2018-01-11T13:59:50.604Z,8.60
2018-01-11T14:02:18.114Z,8.60
2018-01-11T14:04:46.412Z,8.50
2018-01-11T14:07:14.683Z,8.50
2018-01-11T14:09:42.216Z,8.50
2018-01-11T14:12:10.489Z,8.60
2018-01-11T14:14:38.529Z,8.50
2018-01-11T14:17:06.012Z,8.60
2018-01-11T14:19:33.549Z,8.60
2018-01-11T14:22:01.058Z,8.60
2018-01-11T14:24:29.351Z,8.60
2018-01-11T14:26:57.620Z,8.60
2018-01-11T14:29:25.164Z,8.60
2018-01-11T14:31:52.664Z,8.50
2018-01-11T14:34:20.197Z,8.50
2018-01-11T14:36:48.524Z,8.40
2018-01-11T14:39:16.061Z,8.40
2018-01-11T14:41:43.578Z,8.40
2018-01-11T14:44:11.874Z,8.30
2018-01-11T14:46:40.157Z,8.20
2018-01-11T14:49:07.688Z,8.20
2018-01-11T14:51:35.208Z,8.20
2018-01-11T14:54:02.746Z,8.10
2018-01-11T14:56:30.259Z,8.10
2018-01-11T14:58:57.790Z,8.10
2018-01-11T15:01:25.293Z,8.10
2018-01-11T15:03:53.588Z,8.00
2018-01-11T15:06:21.860Z,8.00
2018-01-11T15:08:49.388Z,7.90
2018-01-11T15:11:16.899Z,8.00
2018-01-11T15:13:44.432Z,7.90
2018-01-11T15:16:11.941Z,7.90
2018-01-11T15:18:39.443Z,7.90
2018-01-11T15:21:06.979Z,7.90
2018-01-11T15:23:34.485Z,7.80
2018-01-11T15:26:02.781Z,7.70
2018-01-11T15:28:31.059Z,7.60
2018-01-11T15:31:00.096Z,7.60
2018-01-11T15:33:29.321Z,7.60
2018-01-11T15:35:57.621Z,7.60
2018-01-11T15:38:25.122Z,7.50
2018-01-11T15:40:53.412Z,7.50
2018-01-11T15:43:20.930Z,7.50
2018-01-11T15:45:48.456Z,7.50
2018-01-11T15:48:15.975Z,7.50
2018-01-11T15:50:44.265Z,7.30
2018-01-11T15:53:11.772Z,7.30
2018-01-11T15:55:39.306Z,7.30
2018-01-11T15:58:06.822Z,7.30
2018-01-11T16:00:35.115Z,7.20
2018-01-11T16:03:02.639Z,7.20
2018-01-11T16:05:31.083Z,7.20
2018-01-11T16:07:58.585Z,7.20
2018-01-11T16:10:26.121Z,7.20
2018-01-11T16:12:53.625Z,7.30
2018-01-11T16:15:21.182Z,7.30
2018-01-11T16:17:48.712Z,7.20
2018-01-11T16:20:16.248Z,7.20
2018-01-11T16:22:44.515Z,7.20
2018-01-11T16:25:12.044Z,7.10
2018-01-11T16:27:39.556Z,7.20
2018-01-11T16:30:07.089Z,7.10
2018-01-11T16:32:34.599Z,7.10
2018-01-11T16:35:02.140Z,7.10
2018-01-11T16:37:29.682Z,7.10
2018-01-11T16:39:57.193Z,7.10
2018-01-11T16:42:24.755Z,7.10
2018-01-11T16:44:52.267Z,7.00
2018-01-11T16:47:20.563Z,7.10
2018-01-11T16:49:48.076Z,7.10
2018-01-11T16:52:15.607Z,7.00
2018-01-11T16:54:43.132Z,7.10
2018-01-11T16:57:10.661Z,7.00
2018-01-11T16:59:38.936Z,7.00
2018-01-11T17:02:06.460Z,6.90
2018-01-11T17:04:33.972Z,6.90
2018-01-11T17:07:01.497Z,6.80
2018-01-11T17:09:29.003Z,6.80
2018-01-11T17:11:57.296Z,6.80
2018-01-11T17:14:25.923Z,6.80
2018-01-11T17:16:54.222Z,6.70
2018-01-11T17:19:22.510Z,6.70
2018-01-11T17:21:50.053Z,6.70
2018-01-11T17:24:17.556Z,6.60
2018-01-11T17:26:45.113Z,6.60
2018-01-11T17:29:12.626Z,6.50
2018-01-11T17:31:40.195Z,6.50
2018-01-11T17:34:07.702Z,6.50
2018-01-11T17:36:35.868Z,6.50
2018-01-11T17:39:04.227Z,6.40
2018-01-11T17:41:32.641Z,6.30
2018-01-11T17:44:00.945Z,6.30
2018-01-11T17:46:28.488Z,6.30
2018-01-11T17:48:56.094Z,6.30
2018-01-11T17:51:23.669Z,6.20
2018-01-11T17:53:51.249Z,6.20
2018-01-11T17:56:18.782Z,6.10
2018-01-11T17:58:47.102Z,6.00
2018-01-11T18:01:15.402Z,6.00
2018-01-11T18:03:43.733Z,5.90
2018-01-11T18:06:11.246Z,6.00
2018-01-11T18:08:38.930Z,6.00
2018-01-11T18:11:06.464Z,6.00
2018-01-11T18:13:34.765Z,5.90
2018-01-11T18:16:02.304Z,5.90
2018-01-11T18:18:29.845Z,5.90
2018-01-11T18:20:58.140Z,5.80
2018-01-11T18:23:26.443Z,5.80
2018-01-11T18:25:54.730Z,5.80
2018-01-11T18:28:22.277Z,5.80
2018-01-11T18:30:49.809Z,5.70
2018-01-11T18:33:18.132Z,5.70
2018-01-11T18:35:45.645Z,5.60
2018-01-11T18:38:13.182Z,5.60
2018-01-11T18:40:41.460Z,5.50
2018-01-11T18:43:09.008Z,5.50
2018-01-11T18:45:39.440Z,5.50
2018-01-11T18:48:06.983Z,5.40
2018-01-11T18:50:34.513Z,5.40
2018-01-11T18:53:02.046Z,5.40
2018-01-11T18:55:29.676Z,5.40
2018-01-11T18:57:57.994Z,5.30
2018-01-11T19:00:25.510Z,5.30
2018-01-11T19:02:53.046Z,5.30
2018-01-11T19:05:20.561Z,5.30
2018-01-11T19:07:48.449Z,5.30
2018-01-11T19:10:15.982Z,5.20
2018-01-11T19:12:43.493Z,5.10
2018-01-11T19:15:11.807Z,5.10
2018-01-11T19:17:39.325Z,5.00
2018-01-11T19:20:06.869Z,5.10
2018-01-11T19:22:34.390Z,5.10
2018-01-11T19:25:01.928Z,5.10
2018-01-11T19:27:30.229Z,5.10
2018-01-11T19:29:58.536Z,5.00
2018-01-11T19:32:26.814Z,5.00
2018-01-11T19:34:54.365Z,5.00
2018-01-11T19:37:21.874Z,4.90
2018-01-11T19:39:49.451Z,4.90
2018-01-11T19:42:16.980Z,5.00
2018-01-11T19:44:44.519Z,5.00
2018-01-11T19:47:12.033Z,4.90
2018-01-11T19:49:40.352Z,4.90
2018-01-11T19:52:07.912Z,4.90
2018-01-11T19:54:36.217Z,4.90
2018-01-11T19:57:04.494Z,4.90
2018-01-11T19:59:32.038Z,4.90
2018-01-11T20:01:59.548Z,4.90
2018-01-11T20:04:27.077Z,4.90
2018-01-11T20:06:54.590Z,4.90
2018-01-11T20:09:22.120Z,4.90
2018-01-11T20:11:49.635Z,4.90
2018-01-11T20:14:17.990Z,4.90
2018-01-11T20:16:46.397Z,4.90
2018-01-11T20:19:13.945Z,4.80
2018-01-11T20:21:42.225Z,4.80
2018-01-11T20:24:09.756Z,4.80
2018-01-11T20:26:38.053Z,4.80
2018-01-11T20:29:05.585Z,4.80
2018-01-11T20:31:33.136Z,4.70
2018-01-11T20:34:01.418Z,4.70
2018-01-11T20:36:28.960Z,4.70
2018-01-11T20:38:56.488Z,4.70
2018-01-11T20:41:24.029Z,4.70
2018-01-11T20:43:51.560Z,4.70
2018-01-11T20:46:19.094Z,4.70
2018-01-11T20:48:46.630Z,4.60
2018-01-11T20:51:14.219Z,4.50
2018-01-11T20:53:41.756Z,4.50
2018-01-11T20:56:09.293Z,4.50
2018-01-11T20:58:36.827Z,4.40
2018-01-11T21:01:04.365Z,4.40
2018-01-11T21:03:32.816Z,4.40
2018-01-11T21:06:00.367Z,4.40
2018-01-11T21:08:28.649Z,4.20
2018-01-11T21:10:56.185Z,4.20
2018-01-11T21:13:23.695Z,4.20
2018-01-11T21:15:51.275Z,4.30
2018-01-11T21:18:18.808Z,4.20
2018-01-11T21:20:46.341Z,4.30
2018-01-11T21:23:13.860Z,4.20
2018-01-11T21:25:41.444Z,4.20
2018-01-11T21:28:08.961Z,4.20
2018-01-11T21:30:37.258Z,4.10
2018-01-11T21:33:04.814Z,4.10
2018-01-11T21:35:32.389Z,4.00
2018-01-11T21:37:59.900Z,4.00
2018-01-11T21:40:27.432Z,4.00
2018-01-11T21:42:54.949Z,3.90
2018-01-11T21:45:23.235Z,4.00
2018-01-11T21:47:50.811Z,4.00
2018-01-11T21:50:19.091Z,3.90
2018-01-11T21:52:47.404Z,3.90
2018-01-11T21:55:14.926Z,3.90
2018-01-11T21:57:42.466Z,3.90
2018-01-11T22:00:09.993Z,3.80
2018-01-11T22:02:37.532Z,3.80
2018-01-11T22:05:05.045Z,3.80
2018-01-11T22:07:33.293Z,3.80
2018-01-11T22:10:00.805Z,3.90
2018-01-11T22:12:28.342Z,4.00
2018-01-11T22:14:57.368Z,4.00
2018-01-11T22:17:24.907Z,4.00
2018-01-11T22:19:53.189Z,4.00
2018-01-11T22:22:20.721Z,4.00
2018-01-11T22:24:49.745Z,4.00
2018-01-11T22:27:17.281Z,4.00
2018-01-11T22:29:44.812Z,4.10
2018-01-11T22:32:12.354Z,4.10
2018-01-11T22:34:39.866Z,4.10
2018-01-11T22:37:07.407Z,4.10
2018-01-11T22:39:35.738Z,4.10
2018-01-11T22:42:03.280Z,4.10
2018-01-11T22:44:31.569Z,4.10
2018-01-11T22:46:59.106Z,4.10
2018-01-11T22:49:26.626Z,4.00
2018-01-11T22:51:54.145Z,3.90
2018-01-11T22:54:22.442Z,3.90
2018-01-11T22:56:50.717Z,3.80
2018-01-11T22:59:18.263Z,3.80
2018-01-11T23:01:45.805Z,3.80
2018-01-11T23:04:14.112Z,3.70
2018-01-11T23:06:42.389Z,3.70
2018-01-11T23:09:09.939Z,3.60
2018-01-11T23:11:43.434Z,3.70
2018-01-11T23:14:11.748Z,3.80
2018-01-11T23:16:39.264Z,3.80
2018-01-11T23:19:06.798Z,3.80
2018-01-11T23:21:35.083Z,3.90
2018-01-11T23:24:02.613Z,3.90
2018-01-11T23:26:30.130Z,3.80
2018-01-11T23:28:58.426Z,3.90
2018-01-11T23:31:25.943Z,3.90
2018-01-11T23:33:53.490Z,3.90
2018-01-11T23:36:21.000Z,3.90
2018-01-11T23:38:48.551Z,3.90
2018-01-11T23:41:16.078Z,3.80
2018-01-11T23:43:43.635Z,3.70
2018-01-11T23:46:11.914Z,3.80
2018-01-11T23:48:39.460Z,3.80
2018-01-11T23:51:06.999Z,3.80
2018-01-11T23:53:34.541Z,3.70
2018-01-11T23:56:02.831Z,3.70
2018-01-11T23:58:30.436Z,3.70
